^^
Datos históricos de la estación: Murcia-Puente Tocinos
Diario Informe para Mayo 9, 2019 Unidades:  Ambas    Ingés   Métrico
Diario Semanal Mensual Anual
  Máxima: Mínima: Promedio:
Temperatura: 94.1 °F /  34.5 °C 72.9 °F /  22.7 °C 82 °F /  27.8 °C
Punto de rocio: 68.4 °F /  20.2 °C 46 °F /  7.8 °C 55.6 °F /  13.1 °C
Humedad: 84% 21% 45%
Velocidad viento: 14.5mph /  23.3km/h - 5.7mph /  9.1km/h
Racha viento: 28mph /  45.1km/h - -
Viento- - SSO
Presión: 29.9 in /  1011.6 hPa 29.8 in /  1008.0 hPa -
Precipitación: 0 in /  0.0 mm    
 
 
Tabla de datos para Mayo 9, 2019
Hora Temperatura Punto de rocio Presión Viento Velocidad viento Racha viento Humedad Intensidad lluvia(por hora) Nubes
00:04 73.9 °F /  23.3 °C 68.4 °F /  20.2 °C 29.8in /  1009.8hPa NNE 4.3mph /  6.9km/h 7mph /  11.3km/h 83% 0in /  0.0mm
00:09 73.8 °F /  23.2 °C 68.4 °F /  20.2 °C 29.8in /  1009.7hPa NNE 4.3mph /  6.9km/h 7.4mph /  11.9km/h 83% 0in /  0.0mm
00:14 73.8 °F /  23.2 °C 68.4 °F /  20.2 °C 29.8in /  1009.7hPa North 4.3mph /  6.9km/h 7mph /  11.3km/h 83% 0in /  0.0mm
00:19 73.8 °F /  23.2 °C 68.4 °F /  20.2 °C 29.8in /  1009.8hPa NNO 3.5mph /  5.6km/h 5mph /  8km/h 83% 0in /  0.0mm
00:24 73.8 °F /  23.2 °C 68.4 °F /  20.2 °C 29.8in /  1009.8hPa NNO 1.8mph /  2.9km/h 4.6mph /  7.4km/h 82.9% 0in /  0.0mm
00:29 73.8 °F /  23.2 °C 68 °F /  20 °C 29.8in /  1009.8hPa NNO 2mph /  3.2km/h 5mph /  8km/h 82.1% 0in /  0.0mm
00:34 73.8 °F /  23.2 °C 67.8 °F /  19.9 °C 29.8in /  1009.8hPa NNO 2.4mph /  3.9km/h 5.2mph /  8.4km/h 82% 0in /  0.0mm
00:39 73.8 °F /  23.2 °C 67.8 °F /  19.9 °C 29.8in /  1009.8hPa NO 2.5mph /  4.1km/h 5.2mph /  8.4km/h 82% 0in /  0.0mm
00:44 73.8 °F /  23.2 °C 67.8 °F /  19.9 °C 29.8in /  1009.8hPa NO 2.9mph /  4.7km/h 5.9mph /  9.5km/h 82% 0in /  0.0mm
00:49 73.8 °F /  23.2 °C 67.8 °F /  19.9 °C 29.8in /  1009.8hPa ONO 3mph /  4.8km/h 6.9mph /  11.1km/h 82% 0in /  0.0mm
00:54 73.6 °F /  23.1 °C 67.8 °F /  19.9 °C 29.8in /  1009.8hPa ONO 3.1mph /  5km/h 7mph /  11.3km/h 82.3% 0in /  0.0mm
00:59 73.6 °F /  23.1 °C 68 °F /  20 °C 29.8in /  1009.8hPa ONO 3mph /  4.9km/h 5mph /  8km/h 83% 0in /  0.0mm
01:04 73.4 °F /  23 °C 67.8 °F /  19.9 °C 29.8in /  1009.9hPa ONO 2.9mph /  4.6km/h 4.6mph /  7.4km/h 83% 0in /  0.0mm
01:09 73.4 °F /  23 °C 68 °F /  20 °C 29.8in /  1009.9hPa ONO 2.7mph /  4.4km/h 5mph /  8km/h 83.1% 0in /  0.0mm
01:14 73.2 °F /  22.9 °C 68.2 °F /  20.1 °C 29.8in /  1009.9hPa Oeste 2.4mph /  3.9km/h 6.2mph /  10km/h 84% 0in /  0.0mm
01:19 73.2 °F /  22.9 °C 68.2 °F /  20.1 °C 29.8in /  1009.9hPa Oeste 3mph /  4.9km/h 8.1mph /  13km/h 84% 0in /  0.0mm
01:24 73.2 °F /  22.9 °C 68.2 °F /  20.1 °C 29.8in /  1009.8hPa Oeste 4.3mph /  6.9km/h 8.5mph /  13.7km/h 84% 0in /  0.0mm
01:29 73.2 °F /  22.9 °C 68.2 °F /  20.1 °C 29.8in /  1009.8hPa Oeste 4.6mph /  7.4km/h 9mph /  14.5km/h 84% 0in /  0.0mm
01:34 73.2 °F /  22.9 °C 68.2 °F /  20.1 °C 29.8in /  1009.8hPa ONO 5.2mph /  8.4km/h 8mph /  12.9km/h 84% 0in /  0.0mm
01:39 73.2 °F /  22.9 °C 68.2 °F /  20.1 °C 29.8in /  1009.8hPa Oeste 4.8mph /  7.8km/h 7mph /  11.3km/h 84% 0in /  0.0mm
01:44 73.4 °F /  23 °C 68.2 °F /  20.1 °C 29.8in /  1009.8hPa ONO 4mph /  6.5km/h 6mph /  9.7km/h 84% 0in /  0.0mm
01:49 73.4 °F /  23 °C 68.4 °F /  20.2 °C 29.8in /  1009.8hPa Oeste 3.4mph /  5.4km/h 5mph /  8km/h 84% 0in /  0.0mm
01:54 73.4 °F /  23 °C 68 °F /  20 °C 29.8in /  1009.5hPa OSO 2mph /  3.2km/h 4.6mph /  7.4km/h 83.5% 0in /  0.0mm
01:59 73.6 °F /  23.1 °C 68 °F /  20 °C 29.8in /  1009.5hPa OSO 1.9mph /  3.1km/h 5mph /  8km/h 83% 0in /  0.0mm
02:04 73.6 °F /  23.1 °C 68.2 °F /  20.1 °C 29.8in /  1009.5hPa OSO 1.8mph /  2.9km/h 5.2mph /  8.4km/h 83% 0in /  0.0mm
02:09 73.8 °F /  23.2 °C 68 °F /  20 °C 29.8in /  1009.4hPa OSO 1.9mph /  3km/h 5.4mph /  8.7km/h 82.4% 0in /  0.0mm
02:14 73.8 °F /  23.2 °C 67.8 °F /  19.9 °C 29.8in /  1009.4hPa OSO 2mph /  3.2km/h 6mph /  9.7km/h 82% 0in /  0.0mm
02:19 73.8 °F /  23.2 °C 67.8 °F /  19.9 °C 29.8in /  1009.5hPa Oeste 2.3mph /  3.7km/h 5mph /  8km/h 82% 0in /  0.0mm
02:24 73.8 °F /  23.2 °C 67.8 °F /  19.9 °C 29.8in /  1009.5hPa Oeste 2.9mph /  4.7km/h 5mph /  8km/h 82% 0in /  0.0mm
02:29 73.8 °F /  23.2 °C 68.2 °F /  20.1 °C 29.8in /  1009.5hPa OSO 2.5mph /  4.1km/h 5mph /  8km/h 82.9% 0in /  0.0mm
02:34 73.8 °F /  23.2 °C 68.4 °F /  20.2 °C 29.8in /  1009.5hPa OSO 1.8mph /  2.9km/h 5.4mph /  8.7km/h 83% 0in /  0.0mm
02:39 73.8 °F /  23.2 °C 68.4 °F /  20.2 °C 29.8in /  1009.3hPa OSO 2.1mph /  3.4km/h 6mph /  9.7km/h 83% 0in /  0.0mm
02:44 73.8 °F /  23.2 °C 68.4 °F /  20.2 °C 29.8in /  1009.3hPa OSO 2.9mph /  4.7km/h 6.4mph /  10.3km/h 83% 0in /  0.0mm
02:49 73.8 °F /  23.2 °C 68.4 °F /  20.2 °C 29.8in /  1009.3hPa SO 3.1mph /  5km/h 7mph /  11.3km/h 83% 0in /  0.0mm
02:54 73.8 °F /  23.2 °C 68.2 °F /  20.1 °C 29.8in /  1009.3hPa SSO 3.6mph /  5.8km/h 8.1mph /  13km/h 82.9% 0in /  0.0mm
02:59 73.6 °F /  23.1 °C 67.5 °F /  19.7 °C 29.8in /  1009.3hPa Sur 3.9mph /  6.2km/h 8.1mph /  13km/h 81.6% 0in /  0.0mm
03:04 73 °F /  22.8 °C 67.3 °F /  19.6 °C 29.8in /  1009.3hPa Sur 4.3mph /  6.9km/h 8mph /  12.9km/h 82% 0in /  0.0mm
03:09 72.9 °F /  22.7 °C 67.3 °F /  19.6 °C 29.8in /  1009.3hPa SSO 4.2mph /  6.8km/h 7mph /  11.3km/h 82.7% 0in /  0.0mm
03:14 73 °F /  22.8 °C 67.6 °F /  19.8 °C 29.8in /  1009.3hPa OSO 4mph /  6.5km/h 5.9mph /  9.5km/h 83% 0in /  0.0mm
03:19 73.2 °F /  22.9 °C 67.6 °F /  19.8 °C 29.8in /  1009.3hPa OSO 3.9mph /  6.2km/h 8.1mph /  13km/h 83% 0in /  0.0mm
03:24 73.2 °F /  22.9 °C 67.8 °F /  19.9 °C 29.8in /  1009.2hPa OSO 3.6mph /  5.8km/h 8mph /  12.9km/h 83% 0in /  0.0mm
03:29 73.4 °F /  23 °C 67.6 °F /  19.8 °C 29.8in /  1009.2hPa OSO 3.6mph /  5.8km/h 6mph /  9.7km/h 82.1% 0in /  0.0mm
03:34 73.6 °F /  23.1 °C 67.6 °F /  19.8 °C 29.8in /  1009.3hPa OSO 3.6mph /  5.8km/h 6.9mph /  11.1km/h 82% 0in /  0.0mm
03:39 73.6 °F /  23.1 °C 67.6 °F /  19.8 °C 29.8in /  1009.3hPa OSO 3.6mph /  5.8km/h 7mph /  11.3km/h 82% 0in /  0.0mm
03:44 73.6 °F /  23.1 °C 67.6 °F /  19.8 °C 29.8in /  1009.3hPa OSO 3.6mph /  5.8km/h 6mph /  9.7km/h 82% 0in /  0.0mm
03:49 73.6 °F /  23.1 °C 67.6 °F /  19.8 °C 29.8in /  1009.4hPa OSO 3.4mph /  5.5km/h 6mph /  9.7km/h 82% 0in /  0.0mm
03:54 73.4 °F /  23 °C 67.3 °F /  19.6 °C 29.8in /  1009.4hPa OSO 3.1mph /  5km/h 5.8mph /  9.3km/h 81.4% 0in /  0.0mm
03:59 73.2 °F /  22.9 °C 67.1 °F /  19.5 °C 29.8in /  1009.4hPa OSO 3mph /  4.9km/h 6mph /  9.7km/h 81% 0in /  0.0mm
04:04 73.2 °F /  22.9 °C 66.9 °F /  19.4 °C 29.8in /  1009.4hPa OSO 2.9mph /  4.6km/h 5mph /  8km/h 81% 0in /  0.0mm
04:09 73.2 °F /  22.9 °C 66.9 °F /  19.4 °C 29.8in /  1009.4hPa OSO 2.7mph /  4.4km/h 5mph /  8km/h 81% 0in /  0.0mm
04:14 73.4 °F /  23 °C 66.7 °F /  19.3 °C 29.8in /  1009.4hPa OSO 2.4mph /  3.9km/h 6.9mph /  11.1km/h 79.7% 0in /  0.0mm
04:19 73.6 °F /  23.1 °C 66.4 °F /  19.1 °C 29.8in /  1009.5hPa SO 2.8mph /  4.5km/h 7mph /  11.3km/h 78.1% 0in /  0.0mm
04:24 73.8 °F /  23.2 °C 65.8 °F /  18.8 °C 29.8in /  1009.5hPa SO 3.6mph /  5.8km/h 6mph /  9.7km/h 76.4% 0in /  0.0mm
04:29 73.9 °F /  23.3 °C 65.5 °F /  18.6 °C 29.8in /  1009.5hPa OSO 3.6mph /  5.8km/h 6.9mph /  11.1km/h 75% 0in /  0.0mm
04:34 73.9 °F /  23.3 °C 65.1 °F /  18.4 °C 29.8in /  1009.5hPa SSO 3.6mph /  5.8km/h 7.4mph /  11.9km/h 73.9% 0in /  0.0mm
04:39 74.1 °F /  23.4 °C 64.9 °F /  18.3 °C 29.8in /  1009.4hPa SO 3.9mph /  6.3km/h 7mph /  11.3km/h 73% 0in /  0.0mm
04:44 74.5 °F /  23.6 °C 64.9 °F /  18.3 °C 29.8in /  1009.4hPa SO 4.7mph /  7.6km/h 9.2mph /  14.8km/h 72.1% 0in /  0.0mm
04:49 74.5 °F /  23.6 °C 64.6 °F /  18.1 °C 29.8in /  1009.4hPa SO 4.9mph /  7.9km/h 9.2mph /  14.8km/h 71.3% 0in /  0.0mm
04:54 74.5 °F /  23.6 °C 64.6 °F /  18.1 °C 29.8in /  1009.4hPa SO 5.4mph /  8.7km/h 9.2mph /  14.8km/h 71% 0in /  0.0mm
04:59 74.5 °F /  23.6 °C 64.2 °F /  17.9 °C 29.8in /  1009.4hPa SO 5.3mph /  8.6km/h 9mph /  14.5km/h 70.2% 0in /  0.0mm
05:04 74.5 °F /  23.6 °C 63.5 °F /  17.5 °C 29.8in /  1009.4hPa SO 5.2mph /  8.4km/h 8.1mph /  13km/h 68.8% 0in /  0.0mm
05:09 74.7 °F /  23.7 °C 63 °F /  17.2 °C 29.8in /  1009.4hPa SO 5.4mph /  8.7km/h 11.8mph /  19km/h 67% 0in /  0.0mm
05:14 74.8 °F /  23.8 °C 62.1 °F /  16.7 °C 29.8in /  1009.4hPa SO 5.9mph /  9.5km/h 12mph /  19.3km/h 64.6% 0in /  0.0mm
05:19 74.8 °F /  23.8 °C 61.7 °F /  16.5 °C 29.8in /  1009.4hPa SO 6mph /  9.6km/h 9.2mph /  14.8km/h 63.5% 0in /  0.0mm
05:24 74.8 °F /  23.8 °C 61.2 °F /  16.2 °C 29.8in /  1009.4hPa SO 6.2mph /  10km/h 9.2mph /  14.8km/h 62.3% 0in /  0.0mm
05:29 74.8 °F /  23.8 °C 60.4 °F /  15.8 °C 29.8in /  1009.4hPa SO 6mph /  9.6km/h 9.2mph /  14.8km/h 60.8% 0in /  0.0mm
05:34 74.8 °F /  23.8 °C 60.1 °F /  15.6 °C 29.8in /  1009.4hPa SO 5.4mph /  8.7km/h 9mph /  14.5km/h 60.1% 0in /  0.0mm
05:39 74.8 °F /  23.8 °C 59.7 °F /  15.4 °C 29.8in /  1009.4hPa SO 5.2mph /  8.3km/h 8.1mph /  13km/h 59.4% 0in /  0.0mm
05:44 74.8 °F /  23.8 °C 59.2 °F /  15.1 °C 29.8in /  1009.4hPa SO 4.7mph /  7.6km/h 9.2mph /  14.8km/h 58.1% 0in /  0.0mm
05:49 74.8 °F /  23.8 °C 58.6 °F /  14.8 °C 29.8in /  1009.5hPa SO 4.8mph /  7.8km/h 9.2mph /  14.8km/h 57% 0in /  0.0mm
05:54 74.8 °F /  23.8 °C 58.1 °F /  14.5 °C 29.8in /  1009.5hPa SO 5.2mph /  8.4km/h 9.2mph /  14.8km/h 56% 0in /  0.0mm
05:59 75 °F /  23.9 °C 57.7 °F /  14.3 °C 29.8in /  1009.5hPa SO 5.3mph /  8.5km/h 10.7mph /  17.2km/h 55.1% 0in /  0.0mm
06:04 75 °F /  23.9 °C 57.2 °F /  14 °C 29.8in /  1009.6hPa SSO 5.4mph /  8.7km/h 11.5mph /  18.5km/h 54% 0in /  0.0mm
06:09 75 °F /  23.9 °C 56.7 °F /  13.7 °C 29.8in /  1009.6hPa SSO 5.7mph /  9.2km/h 12mph /  19.3km/h 52.6% 0in /  0.0mm
06:14 75.4 °F /  24.1 °C 56.3 °F /  13.5 °C 29.8in /  1009.6hPa SSO 6.4mph /  10.3km/h 12mph /  19.3km/h 51.7% 0in /  0.0mm
06:19 75.4 °F /  24.1 °C 56.1 °F /  13.4 °C 29.8in /  1009.7hPa SSO 6.3mph /  10.2km/h 10mph /  16.1km/h 51.3% 0in /  0.0mm
06:24 75.2 °F /  24 °C 55.8 °F /  13.2 °C 29.8in /  1009.7hPa SSO 6.2mph /  10km/h 9.2mph /  14.8km/h 51% 0in /  0.0mm
06:29 75.2 °F /  24 °C 55.6 °F /  13.1 °C 29.8in /  1009.7hPa SSO 6.2mph /  10km/h 11.5mph /  18.5km/h 50.6% 0in /  0.0mm
06:34 75 °F /  23.9 °C 55.2 °F /  12.9 °C 29.8in /  1009.8hPa SSO 6.2mph /  10km/h 12mph /  19.3km/h 50% 0in /  0.0mm
06:39 75 °F /  23.9 °C 55 °F /  12.8 °C 29.8in /  1009.8hPa SSO 6.3mph /  10.1km/h 10mph /  16.1km/h 50% 0in /  0.0mm
06:44 75 °F /  23.9 °C 55 °F /  12.8 °C 29.8in /  1009.8hPa SSO 6.4mph /  10.3km/h 11.5mph /  18.5km/h 49.9% 0in /  0.0mm
06:49 75 °F /  23.9 °C 55 °F /  12.8 °C 29.8in /  1009.9hPa SSO 6.4mph /  10.3km/h 12mph /  19.3km/h 49.8% 0in /  0.0mm
06:54 74.8 °F /  23.8 °C 54.5 °F /  12.5 °C 29.8in /  1009.9hPa SSO 6.4mph /  10.3km/h 10.7mph /  17.2km/h 49.3% 0in /  0.0mm
06:59 74.8 °F /  23.8 °C 54.3 °F /  12.4 °C 29.8in /  1009.9hPa SSO 6.4mph /  10.3km/h 11mph /  17.7km/h 49% 0in /  0.0mm
07:04 74.8 °F /  23.8 °C 54.3 °F /  12.4 °C 29.8in /  1010.0hPa SSO 6.4mph /  10.3km/h 10.4mph /  16.7km/h 49% 0in /  0.0mm
07:09 74.8 °F /  23.8 °C 54 °F /  12.2 °C 29.8in /  1010.0hPa SSO 6.3mph /  10.2km/h 10.7mph /  17.2km/h 48.3% 0in /  0.0mm
07:14 75 °F /  23.9 °C 54 °F /  12.2 °C 29.8in /  1010.0hPa SSO 6.2mph /  10km/h 11mph /  17.7km/h 48% 0in /  0.0mm
07:19 75 °F /  23.9 °C 54 °F /  12.2 °C 29.8in /  1010.2hPa SSO 6.4mph /  10.3km/h 10mph /  16.1km/h 48% 0in /  0.0mm
07:24 75.2 °F /  24 °C 53.8 °F /  12.1 °C 29.8in /  1010.2hPa SSO 6.9mph /  11.1km/h 10.4mph /  16.7km/h 47.4% 0in /  0.0mm
07:29 75.4 °F /  24.1 °C 53.6 °F /  12 °C 29.8in /  1010.2hPa SO 6.6mph /  10.6km/h 9.2mph /  14.8km/h 47% 0in /  0.0mm
07:34 75.4 °F /  24.1 °C 53.8 °F /  12.1 °C 29.8in /  1010.2hPa SSO 5.9mph /  9.5km/h 9mph /  14.5km/h 47% 0in /  0.0mm
07:39 75.6 °F /  24.2 °C 53.8 °F /  12.1 °C 29.8in /  1010.2hPa SO 5.5mph /  8.9km/h 8.5mph /  13.7km/h 47% 0in /  0.0mm
07:44 75.6 °F /  24.2 °C 54 °F /  12.2 °C 29.8in /  1010.2hPa Oeste 4.7mph /  7.6km/h 9mph /  14.5km/h 47.1% 0in /  0.0mm
07:49 75.6 °F /  24.2 °C 56.1 °F /  13.4 °C 29.8in /  1010.5hPa North 4.2mph /  6.8km/h 8mph /  12.9km/h 51.1% 0in /  0.0mm
07:54 75.2 °F /  24 °C 57.2 °F /  14 °C 29.8in /  1010.5hPa NNE 3.1mph /  5km/h 5mph /  8km/h 53.7% 0in /  0.0mm
07:59 74.7 °F /  23.7 °C 57.9 °F /  14.4 °C 29.8in /  1010.5hPa NNE 3mph /  4.9km/h 5.8mph /  9.3km/h 55.9% 0in /  0.0mm
08:04 73.9 °F /  23.3 °C 57.9 °F /  14.4 °C 29.8in /  1010.7hPa NNE 2.9mph /  4.7km/h 6mph /  9.7km/h 57.4% 0in /  0.0mm
08:09 73.8 °F /  23.2 °C 57.9 °F /  14.4 °C 29.8in /  1010.7hPa NE 2.7mph /  4.4km/h 5mph /  8km/h 57.7% 0in /  0.0mm
08:14 73.9 °F /  23.3 °C 57.7 °F /  14.3 °C 29.8in /  1010.7hPa Este 2.4mph /  3.9km/h 4.7mph /  7.6km/h 57% 0in /  0.0mm
08:19 73.9 °F /  23.3 °C 57.6 °F /  14.2 °C 29.9in /  1010.8hPa Este 2.6mph /  4.2km/h 5.9mph /  9.5km/h 56.5% 0in /  0.0mm
08:24 74.1 °F /  23.4 °C 57.9 °F /  14.4 °C 29.9in /  1010.8hPa ESE 3.1mph /  5km/h 6mph /  9.7km/h 57.2% 0in /  0.0mm
08:29 74.3 °F /  23.5 °C 57 °F /  13.9 °C 29.9in /  1010.8hPa SSE 3.1mph /  5km/h 6.2mph /  10km/h 54.8% 0in /  0.0mm
08:34 74.8 °F /  23.8 °C 55.6 °F /  13.1 °C 29.9in /  1010.9hPa SSO 3.1mph /  5km/h 8.1mph /  13km/h 51.1% 0in /  0.0mm
08:39 75.2 °F /  24 °C 54.7 °F /  12.6 °C 29.9in /  1010.9hPa SO 3.6mph /  5.8km/h 8mph /  12.9km/h 49% 0in /  0.0mm
08:44 75.6 °F /  24.2 °C 54.7 °F /  12.6 °C 29.9in /  1010.9hPa OSO 4.7mph /  7.6km/h 8.1mph /  13km/h 48.1% 0in /  0.0mm
08:49 75.9 °F /  24.4 °C 54.9 °F /  12.7 °C 29.9in /  1011.1hPa Oeste 4.6mph /  7.4km/h 8mph /  12.9km/h 48% 0in /  0.0mm
08:54 76.3 °F /  24.6 °C 55 °F /  12.8 °C 29.9in /  1011.1hPa Oeste 4.3mph /  6.9km/h 6.4mph /  10.3km/h 48% 0in /  0.0mm
08:59 76.5 °F /  24.7 °C 55.2 °F /  12.9 °C 29.9in /  1011.1hPa Oeste 4mph /  6.5km/h 7mph /  11.3km/h 47.8% 0in /  0.0mm
09:04 76.6 °F /  24.8 °C 54.9 °F /  12.7 °C 29.9in /  1011.2hPa OSO 3.6mph /  5.8km/h 6.2mph /  10km/h 47% 0in /  0.0mm
09:09 77 °F /  25 °C 55.4 °F /  13 °C 29.9in /  1011.2hPa OSO 3.2mph /  5.1km/h 6mph /  9.7km/h 47.4% 0in /  0.0mm
09:14 77.5 °F /  25.3 °C 55.2 °F /  12.9 °C 29.9in /  1011.2hPa OSO 2.4mph /  3.9km/h 6mph /  9.7km/h 46.2% 0in /  0.0mm
09:19 77.9 °F /  25.5 °C 54.9 °F /  12.7 °C 29.9in /  1011.3hPa Oeste 2.6mph /  4.2km/h 6.9mph /  11.1km/h 45.2% 0in /  0.0mm
09:24 78.3 °F /  25.7 °C 54.9 °F /  12.7 °C 29.9in /  1011.3hPa OSO 3.1mph /  5km/h 7.4mph /  11.9km/h 44.7% 0in /  0.0mm
09:29 78.6 °F /  25.9 °C 54.7 °F /  12.6 °C 29.9in /  1011.3hPa OSO 3.5mph /  5.6km/h 9.2mph /  14.8km/h 43.7% 0in /  0.0mm
09:34 79 °F /  26.1 °C 54.1 °F /  12.3 °C 29.9in /  1011.4hPa OSO 4.3mph /  6.9km/h 9.7mph /  15.6km/h 42.5% 0in /  0.0mm
09:39 79.2 °F /  26.2 °C 54.1 °F /  12.3 °C 29.9in /  1011.4hPa Oeste 4.8mph /  7.8km/h 10.4mph /  16.7km/h 42% 0in /  0.0mm
09:44 79.5 °F /  26.4 °C 54.5 °F /  12.5 °C 29.9in /  1011.4hPa Oeste 5.9mph /  9.5km/h 10mph /  16.1km/h 42.1% 0in /  0.0mm
09:49 79.9 °F /  26.6 °C 54.1 °F /  12.3 °C 29.9in /  1011.4hPa OSO 5.7mph /  9.2km/h 11.8mph /  19km/h 41% 0in /  0.0mm
09:54 80.1 °F /  26.7 °C 54.1 °F /  12.3 °C 29.9in /  1011.3hPa Oeste 5.4mph /  8.7km/h 12mph /  19.3km/h 40.9% 0in /  0.0mm
09:59 80.2 °F /  26.8 °C 54 °F /  12.2 °C 29.9in /  1011.3hPa OSO 5.8mph /  9.3km/h 15mph /  24.1km/h 40.3% 0in /  0.0mm
10:04 80.4 °F /  26.9 °C 53.4 °F /  11.9 °C 29.9in /  1011.3hPa OSO 6.4mph /  10.3km/h 15mph /  24.1km/h 39.4% 0in /  0.0mm
10:09 80.6 °F /  27 °C 53.4 °F /  11.9 °C 29.9in /  1011.3hPa OSO 6.8mph /  11km/h 14mph /  22.5km/h 39% 0in /  0.0mm
10:14 81 °F /  27.2 °C 53.6 °F /  12 °C 29.9in /  1011.3hPa OSO 7.6mph /  12.2km/h 14mph /  22.5km/h 39% 0in /  0.0mm
10:19 81.1 °F /  27.3 °C 53.4 °F /  11.9 °C 29.9in /  1011.3hPa Oeste 7.2mph /  11.6km/h 11.8mph /  19km/h 38.4% 0in /  0.0mm
10:24 81.5 °F /  27.5 °C 53.2 °F /  11.8 °C 29.9in /  1011.3hPa Oeste 6.4mph /  10.3km/h 12mph /  19.3km/h 37.8% 0in /  0.0mm
10:29 81.9 °F /  27.7 °C 52.7 °F /  11.5 °C 29.9in /  1011.3hPa OSO 6mph /  9.7km/h 13mph /  20.9km/h 36.7% 0in /  0.0mm
10:34 82.2 °F /  27.9 °C 52 °F /  11.1 °C 29.9in /  1011.3hPa Oeste 5.2mph /  8.4km/h 15mph /  24.1km/h 35.3% 0in /  0.0mm
10:39 82.6 °F /  28.1 °C 51.8 °F /  11 °C 29.9in /  1011.2hPa Oeste 6mph /  9.6km/h 15mph /  24.1km/h 34.6% 0in /  0.0mm
10:44 82.9 °F /  28.3 °C 51.6 °F /  10.9 °C 29.9in /  1011.2hPa Oeste 7.6mph /  12.2km/h 14mph /  22.5km/h 34% 0in /  0.0mm
10:49 83.3 °F /  28.5 °C 51.8 °F /  11 °C 29.9in /  1011.2hPa Oeste 7.4mph /  11.9km/h 13.7mph /  22km/h 33.8% 0in /  0.0mm
10:54 83.5 °F /  28.6 °C 51.3 °F /  10.7 °C 29.9in /  1011.2hPa OSO 6.9mph /  11.1km/h 14mph /  22.5km/h 33% 0in /  0.0mm
10:59 83.5 °F /  28.6 °C 50.9 °F /  10.5 °C 29.9in /  1011.2hPa Oeste 7.5mph /  12.1km/h 16.1mph /  25.9km/h 32.5% 0in /  0.0mm
11:04 83.5 °F /  28.6 °C 50.5 °F /  10.3 °C 29.9in /  1011.2hPa ONO 8.7mph /  14km/h 16.1mph /  25.9km/h 32.1% 0in /  0.0mm
11:09 83.7 °F /  28.7 °C 50.5 °F /  10.3 °C 29.9in /  1011.0hPa Oeste 8.6mph /  13.9km/h 16mph /  25.7km/h 32% 0in /  0.0mm
11:14 83.7 °F /  28.7 °C 50.7 °F /  10.4 °C 29.9in /  1011.0hPa OSO 8.5mph /  13.7km/h 14.7mph /  23.7km/h 32% 0in /  0.0mm
11:19 83.8 °F /  28.8 °C 50.5 °F /  10.3 °C 29.9in /  1011.0hPa Oeste 8.4mph /  13.5km/h 15mph /  24.1km/h 31.6% 0in /  0.0mm
11:24 84 °F /  28.9 °C 50.5 °F /  10.3 °C 29.9in /  1011.0hPa Oeste 8.1mph /  13km/h 16.1mph /  25.9km/h 31.5% 0in /  0.0mm
11:29 84.4 °F /  29.1 °C 50.5 °F /  10.3 °C 29.9in /  1011.0hPa ONO 7.7mph /  12.4km/h 16mph /  25.7km/h 31.1% 0in /  0.0mm
11:34 84.7 °F /  29.3 °C 50.5 °F /  10.3 °C 29.9in /  1011.0hPa ONO 6.9mph /  11.1km/h 14.5mph /  23.3km/h 30.7% 0in /  0.0mm
11:39 85.1 °F /  29.5 °C 50.2 °F /  10.1 °C 29.9in /  1011.0hPa ONO 6.7mph /  10.8km/h 15mph /  24.1km/h 30% 0in /  0.0mm
11:44 84.9 °F /  29.4 °C 50.2 °F /  10.1 °C 29.9in /  1011.0hPa ONO 6.4mph /  10.3km/h 13mph /  20.9km/h 30.2% 0in /  0.0mm
11:49 85.3 °F /  29.6 °C 49.6 °F /  9.8 °C 29.9in /  1011.0hPa ONO 6.3mph /  10.2km/h 12mph /  19.3km/h 29.4% 0in /  0.0mm
11:54 85.5 °F /  29.7 °C 49.5 °F /  9.7 °C 29.9in /  1010.8hPa Oeste 6.2mph /  10km/h 13mph /  20.9km/h 28.9% 0in /  0.0mm
11:59 85.8 °F /  29.9 °C 49.3 °F /  9.6 °C 29.9in /  1010.8hPa ONO 6.2mph /  10km/h 13mph /  20.9km/h 28.4% 0in /  0.0mm
12:04 86.4 °F /  30.2 °C 49.1 °F /  9.5 °C 29.9in /  1010.8hPa Oeste 6.2mph /  10km/h 12.7mph /  20.4km/h 27.7% 0in /  0.0mm
12:09 86.4 °F /  30.2 °C 49.3 °F /  9.6 °C 29.8in /  1010.7hPa Oeste 5.9mph /  9.5km/h 13mph /  20.9km/h 27.8% 0in /  0.0mm
12:14 86.7 °F /  30.4 °C 49.3 °F /  9.6 °C 29.8in /  1010.7hPa OSO 5.2mph /  8.4km/h 10.7mph /  17.2km/h 27.7% 0in /  0.0mm
12:19 86.5 °F /  30.3 °C 49.5 °F /  9.7 °C 29.8in /  1010.7hPa Oeste 5.4mph /  8.7km/h 11.8mph /  19km/h 27.9% 0in /  0.0mm
12:24 86.4 °F /  30.2 °C 49.5 °F /  9.7 °C 29.8in /  1010.7hPa SO 5.9mph /  9.5km/h 12mph /  19.3km/h 28% 0in /  0.0mm
12:29 86.7 °F /  30.4 °C 49.3 °F /  9.6 °C 29.8in /  1010.7hPa SO 5.7mph /  9.1km/h 9mph /  14.5km/h 27.7% 0in /  0.0mm
12:34 87.1 °F /  30.6 °C 48.9 °F /  9.4 °C 29.8in /  1010.7hPa SO 5.2mph /  8.4km/h 13.7mph /  22km/h 27% 0in /  0.0mm
12:39 86.9 °F /  30.5 °C 48 °F /  8.9 °C 29.8in /  1010.7hPa SO 5.6mph /  9km/h 14mph /  22.5km/h 26.1% 0in /  0.0mm
12:44 87.1 °F /  30.6 °C 48.6 °F /  9.2 °C 29.8in /  1010.7hPa SSO 6.4mph /  10.3km/h 14mph /  22.5km/h 26.5% 0in /  0.0mm
12:49 87.4 °F /  30.8 °C 49.1 °F /  9.5 °C 29.8in /  1010.7hPa SO 6.6mph /  10.6km/h 13mph /  20.9km/h 26.7% 0in /  0.0mm
12:54 87.4 °F /  30.8 °C 48.2 °F /  9 °C 29.8in /  1010.5hPa SSO 6.9mph /  11.1km/h 12.7mph /  20.4km/h 25.9% 0in /  0.0mm
12:59 87.6 °F /  30.9 °C 47.5 °F /  8.6 °C 29.8in /  1010.5hPa SSO 6.5mph /  10.5km/h 13mph /  20.9km/h 25% 0in /  0.0mm
13:04 88.2 °F /  31.2 °C 46.9 °F /  8.3 °C 29.8in /  1010.5hPa SO 5.9mph /  9.5km/h 11mph /  17.7km/h 24.1% 0in /  0.0mm
13:09 88.3 °F /  31.3 °C 46.2 °F /  7.9 °C 29.8in /  1010.4hPa SO 6.2mph /  10km/h 14mph /  22.5km/h 23.4% 0in /  0.0mm
13:14 88.3 °F /  31.3 °C 46.4 °F /  8 °C 29.8in /  1010.4hPa SO 6.9mph /  11.1km/h 14mph /  22.5km/h 23.5% 0in /  0.0mm
13:19 88.2 °F /  31.2 °C 46 °F /  7.8 °C 29.8in /  1010.4hPa SO 6.7mph /  10.8km/h 14mph /  22.5km/h 23.3% 0in /  0.0mm
13:24 88.3 °F /  31.3 °C 46.8 °F /  8.2 °C 29.8in /  1010.4hPa SO 6.4mph /  10.3km/h 11.5mph /  18.5km/h 23.7% 0in /  0.0mm
13:29 88.7 °F /  31.5 °C 46.8 °F /  8.2 °C 29.8in /  1010.4hPa Sur 6.1mph /  9.8km/h 12.7mph /  20.4km/h 23.5% 0in /  0.0mm
13:34 89.1 °F /  31.7 °C 46.6 °F /  8.1 °C 29.8in /  1010.4hPa OSO 5.4mph /  8.7km/h 13mph /  20.9km/h 23.1% 0in /  0.0mm
13:39 89.2 °F /  31.8 °C 46.9 °F /  8.3 °C 29.8in /  1010.2hPa Oeste 5.3mph /  8.6km/h 12mph /  19.3km/h 23.3% 0in /  0.0mm
13:44 89.6 °F /  32 °C 47.3 °F /  8.5 °C 29.8in /  1010.2hPa SSE 5.2mph /  8.4km/h 9.2mph /  14.8km/h 23.4% 0in /  0.0mm
13:49 90 °F /  32.2 °C 47.1 °F /  8.4 °C 29.8in /  1010.2hPa SO 5mph /  8.1km/h 10.2mph /  16.4km/h 23% 0in /  0.0mm
13:54 89.6 °F /  32 °C 47.1 °F /  8.4 °C 29.8in /  1010.2hPa Este 4.7mph /  7.6km/h 10mph /  16.1km/h 23.2% 0in /  0.0mm
13:59 89.4 °F /  31.9 °C 47.7 °F /  8.7 °C 29.8in /  1010.2hPa ENE 4.7mph /  7.6km/h 9.2mph /  14.8km/h 23.9% 0in /  0.0mm
14:04 89.6 °F /  32 °C 47.8 °F /  8.8 °C 29.8in /  1010.2hPa SO 4.7mph /  7.6km/h 10.4mph /  16.7km/h 23.8% 0in /  0.0mm
14:09 90 °F /  32.2 °C 47.8 °F /  8.8 °C 29.8in /  1010.0hPa NO 4.7mph /  7.6km/h 10mph /  16.1km/h 23.6% 0in /  0.0mm
14:14 90.1 °F /  32.3 °C 47.7 °F /  8.7 °C 29.8in /  1010.0hPa ONO 4.7mph /  7.6km/h 9mph /  14.5km/h 23.3% 0in /  0.0mm
14:19 90.3 °F /  32.4 °C 47.5 °F /  8.6 °C 29.8in /  1010.0hPa OSO 4.7mph /  7.6km/h 11.5mph /  18.5km/h 23% 0in /  0.0mm
14:24 90.7 °F /  32.6 °C 47.7 °F /  8.7 °C 29.8in /  1009.8hPa SO 4.7mph /  7.6km/h 12mph /  19.3km/h 22.9% 0in /  0.0mm
14:29 90.7 °F /  32.6 °C 47.5 °F /  8.6 °C 29.8in /  1009.8hPa OSO 4.5mph /  7.2km/h 9.2mph /  14.8km/h 22.7% 0in /  0.0mm
14:34 90.7 °F /  32.6 °C 47.7 °F /  8.7 °C 29.8in /  1009.8hPa Oeste 4mph /  6.5km/h 9.2mph /  14.8km/h 23% 0in /  0.0mm
14:39 90.7 °F /  32.6 °C 47.8 °F /  8.8 °C 29.8in /  1009.7hPa Oeste 4.4mph /  7.1km/h 9.2mph /  14.8km/h 23% 0in /  0.0mm
14:44 90.9 °F /  32.7 °C 48 °F /  8.9 °C 29.8in /  1009.7hPa Oeste 5.2mph /  8.4km/h 11.8mph /  19km/h 23% 0in /  0.0mm
14:49 91 °F /  32.8 °C 48 °F /  8.9 °C 29.8in /  1009.7hPa SSO 5.3mph /  8.5km/h 12mph /  19.3km/h 23% 0in /  0.0mm
14:54 91 °F /  32.8 °C 48 °F /  8.9 °C 29.8in /  1009.5hPa SSO 5.4mph /  8.7km/h 10.7mph /  17.2km/h 23% 0in /  0.0mm
14:59 90.9 °F /  32.7 °C 47.8 °F /  8.8 °C 29.8in /  1009.5hPa SO 5.4mph /  8.7km/h 11.5mph /  18.5km/h 23% 0in /  0.0mm
15:04 90.7 °F /  32.6 °C 47.8 °F /  8.8 °C 29.8in /  1009.5hPa SSE 5.4mph /  8.7km/h 12mph /  19.3km/h 23.1% 0in /  0.0mm
15:09 90.9 °F /  32.7 °C 48 °F /  8.9 °C 29.8in /  1009.3hPa Sur 5.3mph /  8.6km/h 11.8mph /  19km/h 23% 0in /  0.0mm
15:14 91 °F /  32.8 °C 48.2 °F /  9 °C 29.8in /  1009.3hPa SSE 5.2mph /  8.4km/h 12mph /  19.3km/h 23% 0in /  0.0mm
15:19 91 °F /  32.8 °C 47.5 °F /  8.6 °C 29.8in /  1009.3hPa SE 5.6mph /  9km/h 10.4mph /  16.7km/h 22.5% 0in /  0.0mm
15:24 91 °F /  32.8 °C 47.8 °F /  8.8 °C 29.8in /  1009.1hPa ENE 6.4mph /  10.3km/h 10.4mph /  16.7km/h 22.9% 0in /  0.0mm
15:29 91.2 °F /  32.9 °C 47.7 °F /  8.7 °C 29.8in /  1009.1hPa Oeste 6mph /  9.7km/h 9.2mph /  14.8km/h 22.4% 0in /  0.0mm
15:34 91.6 °F /  33.1 °C 48.2 °F /  9 °C 29.8in /  1009.1hPa SSE 5.2mph /  8.4km/h 9.2mph /  14.8km/h 22.7% 0in /  0.0mm
15:39 91.9 °F /  33.3 °C 47.7 °F /  8.7 °C 29.8in /  1009.0hPa NO 4.9mph /  7.9km/h 11.5mph /  18.5km/h 22% 0in /  0.0mm
15:44 92.1 °F /  33.4 °C 47.8 °F /  8.8 °C 29.8in /  1009.0hPa OSO 4.3mph /  6.9km/h 12mph /  19.3km/h 22% 0in /  0.0mm
15:49 92.3 °F /  33.5 °C 48 °F /  8.9 °C 29.8in /  1009.0hPa OSO 4.4mph /  7.1km/h 12mph /  19.3km/h 22% 0in /  0.0mm
15:54 92.7 °F /  33.7 °C 48.4 °F /  9.1 °C 29.8in /  1009.0hPa OSO 4.7mph /  7.6km/h 8.7mph /  14km/h 22% 0in /  0.0mm
15:59 92.7 °F /  33.7 °C 48.2 °F /  9 °C 29.8in /  1009.0hPa Sur 4.7mph /  7.6km/h 9.2mph /  14.8km/h 22% 0in /  0.0mm
16:04 92.5 °F /  33.6 °C 48.2 °F /  9 °C 29.8in /  1009.0hPa OSO 4.7mph /  7.6km/h 9.2mph /  14.8km/h 22% 0in /  0.0mm
16:09 92.7 °F /  33.7 °C 47.8 °F /  8.8 °C 29.8in /  1008.8hPa Oeste 4.3mph /  7km/h 9mph /  14.5km/h 21.7% 0in /  0.0mm
16:14 93.2 °F /  34 °C 48.6 °F /  9.2 °C 29.8in /  1008.8hPa NE 3.6mph /  5.8km/h 7mph /  11.3km/h 22% 0in /  0.0mm
16:19 93.7 °F /  34.3 °C 48 °F /  8.9 °C 29.8in /  1008.8hPa NO 3.3mph /  5.3km/h 8.1mph /  13km/h 21.1% 0in /  0.0mm
16:24 94.1 °F /  34.5 °C 48.2 °F /  9 °C 29.8in /  1008.6hPa OSO 2.4mph /  3.9km/h 8mph /  12.9km/h 21% 0in /  0.0mm
16:29 93.9 °F /  34.4 °C 48.2 °F /  9 °C 29.8in /  1008.6hPa NE 2.8mph /  4.5km/h 8.1mph /  13km/h 21% 0in /  0.0mm
16:34 93.9 °F /  34.4 °C 48.2 °F /  9 °C 29.8in /  1008.6hPa ENE 3.6mph /  5.8km/h 8mph /  12.9km/h 21.1% 0in /  0.0mm
16:39 93.9 °F /  34.4 °C 48 °F /  8.9 °C 29.8in /  1008.6hPa North 3.6mph /  5.8km/h 6.2mph /  10km/h 21% 0in /  0.0mm
16:44 93.7 °F /  34.3 °C 49.8 °F /  9.9 °C 29.8in /  1008.6hPa ENE 3.6mph /  5.8km/h 12.7mph /  20.4km/h 22.6% 0in /  0.0mm
16:49 92.8 °F /  33.8 °C 53.6 °F /  12 °C 29.8in /  1008.6hPa ESE 4.4mph /  7.1km/h 18.1mph /  29.1km/h 26.7% 0in /  0.0mm
16:54 92.7 °F /  33.7 °C 53.6 °F /  12 °C 29.8in /  1008.4hPa ESE 6.2mph /  10km/h 22.3mph /  35.9km/h 26.8% 0in /  0.0mm
16:59 92.3 °F /  33.5 °C 53.8 °F /  12.1 °C 29.8in /  1008.4hPa ESE 8mph /  12.9km/h 22mph /  35.4km/h 27.4% 0in /  0.0mm
17:04 91.8 °F /  33.2 °C 53.8 °F /  12.1 °C 29.8in /  1008.4hPa SE 11.4mph /  18.4km/h 19.7mph /  31.7km/h 27.7% 0in /  0.0mm
17:09 91 °F /  32.8 °C 53.8 °F /  12.1 °C 29.8in /  1008.4hPa SE 11.9mph /  19.2km/h 23mph /  37km/h 28.2% 0in /  0.0mm
17:14 90.7 °F /  32.6 °C 54 °F /  12.2 °C 29.8in /  1008.4hPa SSE 13mph /  20.9km/h 23mph /  37km/h 28.9% 0in /  0.0mm
17:19 90.7 °F /  32.6 °C 54.1 °F /  12.3 °C 29.8in /  1008.4hPa SE 13.2mph /  21.3km/h 23mph /  37km/h 29% 0in /  0.0mm
17:24 90.3 °F /  32.4 °C 53.8 °F /  12.1 °C 29.8in /  1008.3hPa SSE 13.7mph /  22.1km/h 23mph /  37km/h 29% 0in /  0.0mm
17:29 90.3 °F /  32.4 °C 53.8 °F /  12.1 °C 29.8in /  1008.3hPa SE 14mph /  22.5km/h 25.3mph /  40.7km/h 29% 0in /  0.0mm
17:34 90 °F /  32.2 °C 53.4 °F /  11.9 °C 29.8in /  1008.3hPa SE 14.5mph /  23.3km/h 28mph /  45.1km/h 29% 0in /  0.0mm
17:39 90.3 °F /  32.4 °C 53.8 °F /  12.1 °C 29.8in /  1008.1hPa SSE 14.2mph /  22.9km/h 28mph /  45.1km/h 29% 0in /  0.0mm
17:44 90.7 °F /  32.6 °C 54 °F /  12.2 °C 29.8in /  1008.1hPa SE 13.5mph /  21.7km/h 23mph /  37km/h 28.9% 0in /  0.0mm
17:49 90.7 °F /  32.6 °C 54.1 °F /  12.3 °C 29.8in /  1008.1hPa SSE 13.2mph /  21.2km/h 23mph /  37km/h 29% 0in /  0.0mm
17:54 91 °F /  32.8 °C 53.8 °F /  12.1 °C 29.8in /  1008.0hPa SSE 12.5mph /  20.1km/h 21mph /  33.8km/h 28.4% 0in /  0.0mm
17:59 90.9 °F /  32.7 °C 54 °F /  12.2 °C 29.8in /  1008.0hPa SE 12.2mph /  19.7km/h 22.3mph /  35.9km/h 28.8% 0in /  0.0mm
18:04 90.9 °F /  32.7 °C 54.1 °F /  12.3 °C 29.8in /  1008.0hPa SE 11.8mph /  19km/h 22mph /  35.4km/h 29% 0in /  0.0mm
18:09 90.7 °F /  32.6 °C 54.1 °F /  12.3 °C 29.8in /  1008.0hPa SE 11.7mph /  18.8km/h 21.9mph /  35.2km/h 29% 0in /  0.0mm
18:14 90.3 °F /  32.4 °C 53.8 °F /  12.1 °C 29.8in /  1008.0hPa SE 11.4mph /  18.4km/h 22mph /  35.4km/h 29% 0in /  0.0mm
18:19 90 °F /  32.2 °C 54.3 °F /  12.4 °C 29.8in /  1008.3hPa SE 11.7mph /  18.8km/h 21mph /  33.8km/h 29.9% 0in /  0.0mm
18:24 90 °F /  32.2 °C 54.3 °F /  12.4 °C 29.8in /  1008.3hPa ESE 12.3mph /  19.8km/h 20.8mph /  33.5km/h 30% 0in /  0.0mm
18:29 90 °F /  32.2 °C 54.3 °F /  12.4 °C 29.8in /  1008.3hPa ESE 12mph /  19.3km/h 21mph /  33.8km/h 30% 0in /  0.0mm
18:34 89.8 °F /  32.1 °C 54.7 °F /  12.6 °C 29.8in /  1008.5hPa SE 11.4mph /  18.4km/h 18.4mph /  29.6km/h 30.5% 0in /  0.0mm
18:39 89.8 °F /  32.1 °C 55 °F /  12.8 °C 29.8in /  1008.5hPa SE 11.4mph /  18.3km/h 20.7mph /  33.3km/h 31% 0in /  0.0mm
18:44 90 °F /  32.2 °C 55 °F /  12.8 °C 29.8in /  1008.5hPa SE 11.2mph /  18km/h 21mph /  33.8km/h 30.8% 0in /  0.0mm
18:49 89.8 °F /  32.1 °C 54.7 °F /  12.6 °C 29.8in /  1008.5hPa SE 10.7mph /  17.3km/h 20.7mph /  33.3km/h 30.5% 0in /  0.0mm
18:54 89.2 °F /  31.8 °C 54.5 °F /  12.5 °C 29.8in /  1008.5hPa SE 9.7mph /  15.6km/h 22.3mph /  35.9km/h 31% 0in /  0.0mm
18:59 88.7 °F /  31.5 °C 54.3 °F /  12.4 °C 29.8in /  1008.5hPa SE 11.1mph /  17.8km/h 22mph /  35.4km/h 31.2% 0in /  0.0mm
19:04 88.9 °F /  31.6 °C 54.5 °F /  12.5 °C 29.8in /  1008.5hPa SE 13.5mph /  21.7km/h 19mph /  30.6km/h 31.1% 0in /  0.0mm
19:09 89.1 °F /  31.7 °C 54.5 °F /  12.5 °C 29.8in /  1008.5hPa ESE 12.4mph /  19.9km/h 19.6mph /  31.5km/h 31% 0in /  0.0mm
19:14 88.9 °F /  31.6 °C 54.3 °F /  12.4 °C 29.8in /  1008.5hPa SE 10mph /  16.1km/h 20mph /  32.2km/h 31% 0in /  0.0mm
19:19 88.9 °F /  31.6 °C 54.3 °F /  12.4 °C 29.8in /  1008.7hPa SE 10.3mph /  16.5km/h 17.5mph /  28.2km/h 31% 0in /  0.0mm
19:24 88.5 °F /  31.4 °C 54 °F /  12.2 °C 29.8in /  1008.7hPa SE 10.7mph /  17.2km/h 17.3mph /  27.8km/h 31% 0in /  0.0mm
19:29 88.3 °F /  31.3 °C 54 °F /  12.2 °C 29.8in /  1008.7hPa SE 10.7mph /  17.2km/h 18.5mph /  29.8km/h 31% 0in /  0.0mm
19:34 88.3 °F /  31.3 °C 54 °F /  12.2 °C 29.8in /  1008.9hPa SE 10.7mph /  17.2km/h 19mph /  30.6km/h 31% 0in /  0.0mm
19:39 88.2 °F /  31.2 °C 53.8 °F /  12.1 °C 29.8in /  1008.9hPa SE 10.6mph /  17km/h 19mph /  30.6km/h 31% 0in /  0.0mm
19:44 88.2 °F /  31.2 °C 53.8 °F /  12.1 °C 29.8in /  1008.9hPa SE 10.2mph /  16.4km/h 18mph /  29km/h 31% 0in /  0.0mm
19:49 88 °F /  31.1 °C 53.4 °F /  11.9 °C 29.8in /  1009.0hPa SE 10.2mph /  16.4km/h 17.3mph /  27.8km/h 31% 0in /  0.0mm
19:54 87.8 °F /  31 °C 53.4 °F /  11.9 °C 29.8in /  1009.0hPa SE 10.2mph /  16.4km/h 17.3mph /  27.8km/h 31% 0in /  0.0mm
19:59 87.6 °F /  30.9 °C 53.2 °F /  11.8 °C 29.8in /  1009.0hPa SE 10.2mph /  16.4km/h 17.3mph /  27.8km/h 31.1% 0in /  0.0mm
20:04 87.4 °F /  30.8 °C 53.8 °F /  12.1 °C 29.8in /  1009.1hPa SE 10.2mph /  16.4km/h 17mph /  27.4km/h 31.8% 0in /  0.0mm
20:09 87.6 °F /  30.9 °C 53.8 °F /  12.1 °C 29.8in /  1009.1hPa ESE 9.3mph /  15km/h 12mph /  19.3km/h 31.6% 0in /  0.0mm
20:14 87.6 °F /  30.9 °C 53.4 °F /  11.9 °C 29.8in /  1009.1hPa ESE 7.4mph /  11.9km/h 12.7mph /  20.4km/h 31.2% 0in /  0.0mm
20:19 87.4 °F /  30.8 °C 53.2 °F /  11.8 °C 29.8in /  1009.3hPa SE 7.6mph /  12.3km/h 15.2mph /  24.5km/h 31.1% 0in /  0.0mm
20:24 87.3 °F /  30.7 °C 53.1 °F /  11.7 °C 29.8in /  1009.3hPa SE 8.1mph /  13km/h 15mph /  24.1km/h 31.2% 0in /  0.0mm
20:29 86.9 °F /  30.5 °C 53.4 °F /  11.9 °C 29.8in /  1009.3hPa SE 8.4mph /  13.6km/h 16.1mph /  25.9km/h 31.9% 0in /  0.0mm
20:34 86.5 °F /  30.3 °C 53.2 °F /  11.8 °C 29.8in /  1009.5hPa SE 9.2mph /  14.8km/h 16mph /  25.7km/h 32% 0in /  0.0mm
20:39 86.5 °F /  30.3 °C 53.2 °F /  11.8 °C 29.8in /  1009.5hPa SE 8.8mph /  14.2km/h 14mph /  22.5km/h 32% 0in /  0.0mm
20:44 86.5 °F /  30.3 °C 53.1 °F /  11.7 °C 29.8in /  1009.5hPa ESE 8.1mph /  13km/h 12.7mph /  20.4km/h 32% 0in /  0.0mm
20:49 86.4 °F /  30.2 °C 53.1 °F /  11.7 °C 29.8in /  1009.7hPa SE 7.7mph /  12.4km/h 13mph /  20.9km/h 32% 0in /  0.0mm
20:54 86.2 °F /  30.1 °C 52.9 °F /  11.6 °C 29.8in /  1009.7hPa ESE 6.9mph /  11.1km/h 13mph /  20.9km/h 32% 0in /  0.0mm
20:59 86 °F /  30 °C 52.7 °F /  11.5 °C 29.8in /  1009.7hPa ESE 6.6mph /  10.7km/h 12mph /  19.3km/h 32% 0in /  0.0mm
21:04 85.8 °F /  29.9 °C 52.5 °F /  11.4 °C 29.8in /  1009.9hPa SE 6.2mph /  10km/h 10mph /  16.1km/h 32% 0in /  0.0mm
21:09 85.6 °F /  29.8 °C 52.3 °F /  11.3 °C 29.8in /  1009.9hPa SE 5.8mph /  9.4km/h 8.7mph /  14km/h 32% 0in /  0.0mm
21:14 85.5 °F /  29.7 °C 52.3 °F /  11.3 °C 29.8in /  1009.9hPa SE 5.2mph /  8.4km/h 9.2mph /  14.8km/h 32% 0in /  0.0mm
21:19 85.5 °F /  29.7 °C 52.2 °F /  11.2 °C 29.8in /  1010.1hPa ESE 5mph /  8.1km/h 9mph /  14.5km/h 32% 0in /  0.0mm
21:24 85.3 °F /  29.6 °C 52.2 °F /  11.2 °C 29.8in /  1010.1hPa ESE 4.7mph /  7.6km/h 6mph /  9.7km/h 32.1% 0in /  0.0mm
21:29 85.3 °F /  29.6 °C 52 °F /  11.1 °C 29.8in /  1010.1hPa ESE 4.3mph /  7km/h 6.2mph /  10km/h 32% 0in /  0.0mm
21:34 85.1 °F /  29.5 °C 52.2 °F /  11.2 °C 29.8in /  1010.2hPa SE 3.6mph /  5.8km/h 6.2mph /  10km/h 32.3% 0in /  0.0mm
21:39 84.9 °F /  29.4 °C 52 °F /  11.1 °C 29.8in /  1010.2hPa ESE 3.4mph /  5.5km/h 7.4mph /  11.9km/h 32.2% 0in /  0.0mm
21:44 84.7 °F /  29.3 °C 52.3 °F /  11.3 °C 29.8in /  1010.2hPa Este 3.1mph /  5km/h 7mph /  11.3km/h 33% 0in /  0.0mm
21:49 84.6 °F /  29.2 °C 52.3 °F /  11.3 °C 29.8in /  1010.5hPa ESE 3.3mph /  5.3km/h 6mph /  9.7km/h 33% 0in /  0.0mm
21:54 84.6 °F /  29.2 °C 52.3 °F /  11.3 °C 29.8in /  1010.5hPa ESE 3.6mph /  5.8km/h 6mph /  9.7km/h 33% 0in /  0.0mm
21:59 84.6 °F /  29.2 °C 52 °F /  11.1 °C 29.8in /  1010.5hPa ESE 3.6mph /  5.8km/h 6.2mph /  10km/h 32.8% 0in /  0.0mm
22:04 84.4 °F /  29.1 °C 52 °F /  11.1 °C 29.8in /  1010.6hPa ESE 3.6mph /  5.8km/h 6.2mph /  10km/h 32.7% 0in /  0.0mm
22:09 84.2 °F /  29 °C 52 °F /  11.1 °C 29.8in /  1010.6hPa ESE 3.7mph /  6km/h 6mph /  9.7km/h 33% 0in /  0.0mm
22:14 84 °F /  28.9 °C 51.8 °F /  11 °C 29.8in /  1010.6hPa ESE 4mph /  6.5km/h 6mph /  9.7km/h 33% 0in /  0.0mm
22:19 83.8 °F /  28.8 °C 51.8 °F /  11 °C 29.9in /  1010.8hPa Este 3.7mph /  5.9km/h 5mph /  8km/h 33% 0in /  0.0mm
22:24 83.7 °F /  28.7 °C 52 °F /  11.1 °C 29.9in /  1010.8hPa ENE 2.9mph /  4.7km/h 5mph /  8km/h 33.7% 0in /  0.0mm
22:29 83.5 °F /  28.6 °C 52.2 °F /  11.2 °C 29.9in /  1010.8hPa ENE 2.6mph /  4.2km/h 5mph /  8km/h 34% 0in /  0.0mm
22:34 83.3 °F /  28.5 °C 52 °F /  11.1 °C 29.9in /  1011.1hPa Este 2mph /  3.2km/h 6.9mph /  11.1km/h 34% 0in /  0.0mm
22:39 82.9 °F /  28.3 °C 51.8 °F /  11 °C 29.9in /  1011.1hPa ESE 2.5mph /  4.1km/h 7mph /  11.3km/h 34% 0in /  0.0mm
22:44 82.9 °F /  28.3 °C 52.2 °F /  11.2 °C 29.9in /  1011.1hPa ESE 3.6mph /  5.8km/h 7mph /  11.3km/h 34.5% 0in /  0.0mm
22:49 82.9 °F /  28.3 °C 52.3 °F /  11.3 °C 29.9in /  1011.3hPa SE 3.2mph /  5.1km/h 5mph /  8km/h 34.8% 0in /  0.0mm
22:54 82.8 °F /  28.2 °C 52.3 °F /  11.3 °C 29.9in /  1011.3hPa ESE 2.4mph /  3.9km/h 6.9mph /  11.1km/h 35% 0in /  0.0mm
22:59 82.8 °F /  28.2 °C 52.2 °F /  11.2 °C 29.9in /  1011.3hPa ESE 2.7mph /  4.3km/h 7mph /  11.3km/h 35% 0in /  0.0mm
23:04 82.6 °F /  28.1 °C 52.2 °F /  11.2 °C 29.9in /  1011.5hPa SE 3.1mph /  5km/h 6mph /  9.7km/h 35% 0in /  0.0mm
23:09 82.4 °F /  28 °C 52 °F /  11.1 °C 29.9in /  1011.5hPa SE 3mph /  4.9km/h 7.6mph /  12.2km/h 35% 0in /  0.0mm
23:14 82 °F /  27.8 °C 51.8 °F /  11 °C 29.9in /  1011.5hPa ESE 2.9mph /  4.7km/h 8.1mph /  13km/h 35% 0in /  0.0mm
23:19 81.9 °F /  27.7 °C 52.2 °F /  11.2 °C 29.9in /  1011.6hPa Este 3.1mph /  5km/h 8mph /  12.9km/h 35.9% 0in /  0.0mm
23:24 81.7 °F /  27.6 °C 52.2 °F /  11.2 °C 29.9in /  1011.6hPa ESE 3.6mph /  5.8km/h 5.9mph /  9.5km/h 36% 0in /  0.0mm
23:29 81.7 °F /  27.6 °C 52 °F /  11.1 °C 29.9in /  1011.6hPa ESE 3.4mph /  5.5km/h 6mph /  9.7km/h 36% 0in /  0.0mm
23:34 81.3 °F /  27.4 °C 51.8 °F /  11 °C 29.9in /  1011.6hPa ESE 3.1mph /  5km/h 5.8mph /  9.3km/h 36% 0in /  0.0mm
23:39 81.3 °F /  27.4 °C 51.8 °F /  11 °C 29.9in /  1011.6hPa ESE 3.1mph /  5km/h 6mph /  9.7km/h 36.1% 0in /  0.0mm
23:44 81.3 °F /  27.4 °C 52.3 °F /  11.3 °C 29.9in /  1011.6hPa ESE 3.1mph /  5km/h 6mph /  9.7km/h 36.6% 0in /  0.0mm
23:49 81.3 °F /  27.4 °C 52.2 °F /  11.2 °C 29.9in /  1011.6hPa Este 2.9mph /  4.6km/h 6.2mph /  10km/h 36.6% 0in /  0.0mm
23:54 81 °F /  27.2 °C 52.3 °F /  11.3 °C 29.9in /  1011.5hPa ENE 2.4mph /  3.9km/h 6mph /  9.7km/h 37% 0in /  0.0mm
23:59 80.8 °F /  27.1 °C 52.2 °F /  11.2 °C 29.9in /  1011.5hPa NE 2.7mph /  4.3km/h 5.9mph /  9.5km/h 37.2% 0in /  0.0mm
Murcia-Puente Tocinos, España
Compliments of Weather Underground - 3 mb

La estación de MeteoMurcia.com, publica sus datos en los siguientes proyectos:

Weather Underground PWS IMURCIAP2 Meteoclimatic www.awekas.at

W3Counter
Web Analytics